sensor_id;sensor_type;location;lat;lon;timestamp;pressure;altitude;pressure_sealevel;temperature;humidity
54453;BME280;40363;52.270;10.546;2022-12-07T00:00:50;77576.72;;;-147.06;99.58
54453;BME280;40363;52.270;10.546;2022-12-07T00:03:17;77580.84;;;-147.06;99.67
54453;BME280;40363;52.270;10.546;2022-12-07T00:05:45;77572.63;;;-147.06;99.87
54453;BME280;40363;52.270;10.546;2022-12-07T00:08:11;77568.50;;;-147.06;99.85
54453;BME280;40363;52.270;10.546;2022-12-07T00:10:38;77566.44;;;-147.06;99.80
54453;BME280;40363;52.270;10.546;2022-12-07T00:13:04;77558.22;;;-147.06;99.67
54453;BME280;40363;52.270;10.546;2022-12-07T00:15:33;77556.19;;;-147.06;99.83
54453;BME280;40363;52.270;10.546;2022-12-07T00:18:00;77545.91;;;-147.06;99.80
54453;BME280;40363;52.270;10.546;2022-12-07T00:20:27;77550.00;;;-147.06;99.79
54453;BME280;40363;52.270;10.546;2022-12-07T00:22:55;77537.66;;;-147.06;99.77
54453;BME280;40363;52.270;10.546;2022-12-07T00:25:21;77537.66;;;-147.06;99.67
54453;BME280;40363;52.270;10.546;2022-12-07T00:27:48;77533.56;;;-147.06;99.70
54453;BME280;40363;52.270;10.546;2022-12-07T00:30:15;77527.38;;;-147.06;99.50
54453;BME280;40363;52.270;10.546;2022-12-07T00:32:41;77531.50;;;-147.06;99.46
54453;BME280;40363;52.270;10.546;2022-12-07T00:35:08;77527.38;;;-147.06;99.59
54453;BME280;40363;52.270;10.546;2022-12-07T00:37:35;77535.63;;;-147.06;99.61
54453;BME280;40363;52.270;10.546;2022-12-07T00:40:04;77527.38;;;-147.06;99.62
54453;BME280;40363;52.270;10.546;2022-12-07T00:42:30;77527.38;;;-147.06;99.70
54453;BME280;40363;52.270;10.546;2022-12-07T00:44:57;77525.34;;;-147.06;100.00
54453;BME280;40363;52.270;10.546;2022-12-07T00:47:23;77517.13;;;-147.06;100.00
54453;BME280;40363;52.270;10.546;2022-12-07T00:49:50;77517.13;;;-147.06;100.00
54453;BME280;40363;52.270;10.546;2022-12-07T00:52:17;77504.78;;;-147.06;99.95
54453;BME280;40363;52.270;10.546;2022-12-07T00:54:43;77500.66;;;-147.06;99.98
54453;BME280;40363;52.270;10.546;2022-12-07T00:57:11;77494.50;;;-147.06;100.00
54453;BME280;40363;52.270;10.546;2022-12-07T00:59:38;77496.56;;;-147.06;100.00
54453;BME280;40363;52.270;10.546;2022-12-07T01:02:04;77500.66;;;-147.06;100.00
54453;BME280;40363;52.270;10.546;2022-12-07T01:04:33;77488.34;;;-147.06;100.00
54453;BME280;40363;52.270;10.546;2022-12-07T01:07:00;77492.44;;;-147.06;100.00
54453;BME280;40363;52.270;10.546;2022-12-07T01:09:26;77484.22;;;-147.06;100.00
54453;BME280;40363;52.270;10.546;2022-12-07T01:11:53;77494.50;;;-147.06;100.00
54453;BME280;40363;52.270;10.546;2022-12-07T01:14:21;77480.09;;;-147.06;100.00
54453;BME280;40363;52.270;10.546;2022-12-07T01:16:47;77488.34;;;-147.06;100.00
54453;BME280;40363;52.270;10.546;2022-12-07T01:19:14;77478.06;;;-147.06;100.00
54453;BME280;40363;52.270;10.546;2022-12-07T01:21:40;77476.00;;;-147.06;100.00
54453;BME280;40363;52.270;10.546;2022-12-07T01:24:09;77478.06;;;-147.06;100.00
54453;BME280;40363;52.270;10.546;2022-12-07T01:26:36;77476.00;;;-147.06;100.00
54453;BME280;40363;52.270;10.546;2022-12-07T01:29:03;77467.78;;;-147.06;100.00
54453;BME280;40363;52.270;10.546;2022-12-07T01:31:31;77471.88;;;-147.06;100.00
54453;BME280;40363;52.270;10.546;2022-12-07T01:33:59;77461.59;;;-147.06;100.00
54453;BME280;40363;52.270;10.546;2022-12-07T01:36:27;77461.59;;;-147.06;100.00
54453;BME280;40363;52.270;10.546;2022-12-07T01:38:56;77457.50;;;-147.06;100.00
54453;BME280;40363;52.270;10.546;2022-12-07T01:41:24;77459.53;;;-147.06;100.00
54453;BME280;40363;52.270;10.546;2022-12-07T01:44:18;77447.22;;;-147.06;100.00
54453;BME280;40363;52.270;10.546;2022-12-07T01:46:48;77445.16;;;-147.06;100.00
54453;BME280;40363;52.270;10.546;2022-12-07T01:49:20;77457.50;;;-147.06;100.00
54453;BME280;40363;52.270;10.546;2022-12-07T01:51:48;77447.22;;;-147.06;100.00
54453;BME280;40363;52.270;10.546;2022-12-07T01:54:17;77451.31;;;-147.06;100.00
54453;BME280;40363;52.270;10.546;2022-12-07T01:56:50;77453.38;;;-147.06;100.00
54453;BME280;40363;52.270;10.546;2022-12-07T01:59:20;77441.03;;;-147.06;100.00
54453;BME280;40363;52.270;10.546;2022-12-07T02:01:51;77445.16;;;-147.06;100.00
54453;BME280;40363;52.270;10.546;2022-12-07T02:04:18;77447.22;;;-147.06;100.00
54453;BME280;40363;52.270;10.546;2022-12-07T02:06:45;77434.88;;;-147.06;100.00
54453;BME280;40363;52.270;10.546;2022-12-07T02:09:13;77439.00;;;-147.06;100.00
54453;BME280;40363;52.270;10.546;2022-12-07T02:11:40;77445.16;;;-147.06;100.00
54453;BME280;40363;52.270;10.546;2022-12-07T02:14:07;77434.88;;;-147.06;100.00
54453;BME280;40363;52.270;10.546;2022-12-07T02:16:38;77439.00;;;-147.06;100.00
54453;BME280;40363;52.270;10.546;2022-12-07T02:19:29;77443.09;;;-147.06;100.00
54453;BME280;40363;52.270;10.546;2022-12-07T02:22:17;77422.53;;;-147.06;100.00
54453;BME280;40363;52.270;10.546;2022-12-07T02:24:53;77420.50;;;-147.06;100.00
54453;BME280;40363;52.270;10.546;2022-12-07T02:27:35;77418.44;;;-147.06;100.00
54453;BME280;40363;52.270;10.546;2022-12-07T02:30:06;77412.25;;;-147.06;100.00
54453;BME280;40363;52.270;10.546;2022-12-07T02:32:41;77401.97;;;-147.06;100.00
54453;BME280;40363;52.270;10.546;2022-12-07T02:35:11;77406.09;;;-147.06;100.00
54453;BME280;40363;52.270;10.546;2022-12-07T02:37:42;77406.09;;;-147.06;100.00
54453;BME280;40363;52.270;10.546;2022-12-07T02:40:18;77414.31;;;-147.06;100.00
54453;BME280;40363;52.270;10.546;2022-12-07T02:42:48;77408.16;;;-147.06;100.00
54453;BME280;40363;52.270;10.546;2022-12-07T02:45:21;77406.09;;;-147.06;100.00
54453;BME280;40363;52.270;10.546;2022-12-07T02:47:51;77397.88;;;-147.06;100.00
54453;BME280;40363;52.270;10.546;2022-12-07T02:50:19;77399.94;;;-147.06;100.00
54453;BME280;40363;52.270;10.546;2022-12-07T02:52:46;77393.75;;;-147.06;100.00
54453;BME280;40363;52.270;10.546;2022-12-07T02:55:15;77393.75;;;-147.06;100.00
54453;BME280;40363;52.270;10.546;2022-12-07T02:57:57;77383.47;;;-147.06;100.00
54453;BME280;40363;52.270;10.546;2022-12-07T03:00:33;77381.44;;;-147.06;100.00
54453;BME280;40363;52.270;10.546;2022-12-07T03:03:05;77381.44;;;-147.06;100.00
54453;BME280;40363;52.270;10.546;2022-12-07T03:06:04;77381.44;;;-147.06;100.00
54453;BME280;40363;52.270;10.546;2022-12-07T03:08:43;77377.31;;;-147.06;100.00
54453;BME280;40363;52.270;10.546;2022-12-07T03:11:13;77379.38;;;-147.06;100.00
54453;BME280;40363;52.270;10.546;2022-12-07T03:13:45;77360.88;;;-147.06;100.00
54453;BME280;40363;52.270;10.546;2022-12-07T03:16:17;77360.88;;;-147.06;100.00
54453;BME280;40363;52.270;10.546;2022-12-07T03:18:49;77350.59;;;-147.06;100.00
54453;BME280;40363;52.270;10.546;2022-12-07T03:21:19;77354.69;;;-147.06;100.00
54453;BME280;40363;52.270;10.546;2022-12-07T03:23:50;77354.69;;;-147.06;100.00
54453;BME280;40363;52.270;10.546;2022-12-07T03:26:18;77344.41;;;-147.06;100.00
54453;BME280;40363;52.270;10.546;2022-12-07T03:28:49;77340.31;;;-147.06;100.00
54453;BME280;40363;52.270;10.546;2022-12-07T03:31:22;77336.19;;;-147.06;100.00
54453;BME280;40363;52.270;10.546;2022-12-07T03:33:56;77334.13;;;-147.06;100.00
54453;BME280;40363;52.270;10.546;2022-12-07T03:36:29;77327.97;;;-147.06;100.00
54453;BME280;40363;52.270;10.546;2022-12-07T03:39:01;77321.81;;;-147.06;100.00
54453;BME280;40363;52.270;10.546;2022-12-07T03:41:31;77321.81;;;-147.06;100.00
54453;BME280;40363;52.270;10.546;2022-12-07T03:43:58;77315.63;;;-147.06;100.00
54453;BME280;40363;52.270;10.546;2022-12-07T03:46:33;77313.59;;;-147.06;100.00
54453;BME280;40363;52.270;10.546;2022-12-07T03:49:08;77315.63;;;-147.06;100.00
54453;BME280;40363;52.270;10.546;2022-12-07T03:51:40;77301.25;;;-147.06;100.00
54453;BME280;40363;52.270;10.546;2022-12-07T03:54:13;77307.41;;;-147.06;100.00
54453;BME280;40363;52.270;10.546;2022-12-07T03:56:43;77313.59;;;-147.06;100.00
54453;BME280;40363;52.270;10.546;2022-12-07T03:59:12;77321.81;;;-147.06;100.00
54453;BME280;40363;52.270;10.546;2022-12-07T04:01:42;77313.59;;;-147.06;100.00
54453;BME280;40363;52.270;10.546;2022-12-07T04:04:09;77332.09;;;-147.06;100.00
54453;BME280;40363;52.270;10.546;2022-12-07T04:06:36;77321.81;;;-147.06;100.00
54453;BME280;40363;52.270;10.546;2022-12-07T04:09:03;77332.09;;;-147.06;100.00
54453;BME280;40363;52.270;10.546;2022-12-07T04:11:29;77327.97;;;-147.06;100.00
54453;BME280;40363;52.270;10.546;2022-12-07T04:13:56;77323.88;;;-147.06;100.00
54453;BME280;40363;52.270;10.546;2022-12-07T04:16:40;77330.03;;;-147.06;100.00
54453;BME280;40363;52.270;10.546;2022-12-07T04:19:08;77325.91;;;-147.06;100.00
54453;BME280;40363;52.270;10.546;2022-12-07T04:21:34;77319.75;;;-147.06;100.00
54453;BME280;40363;52.270;10.546;2022-12-07T04:24:01;77325.91;;;-147.06;100.00
54453;BME280;40363;52.270;10.546;2022-12-07T04:26:27;77317.69;;;-147.06;100.00
54453;BME280;40363;52.270;10.546;2022-12-07T04:28:54;77315.63;;;-147.06;100.00
54453;BME280;40363;52.270;10.546;2022-12-07T04:31:21;77315.63;;;-147.06;100.00
54453;BME280;40363;52.270;10.546;2022-12-07T04:33:47;77315.63;;;-147.06;100.00
54453;BME280;40363;52.270;10.546;2022-12-07T04:36:15;77309.47;;;-147.06;100.00
54453;BME280;40363;52.270;10.546;2022-12-07T04:38:42;77307.41;;;-147.06;100.00
54453;BME280;40363;52.270;10.546;2022-12-07T04:41:09;77307.41;;;-147.06;100.00
54453;BME280;40363;52.270;10.546;2022-12-07T04:43:35;77303.31;;;-147.06;100.00
54453;BME280;40363;52.270;10.546;2022-12-07T04:46:02;77309.47;;;-147.06;100.00
54453;BME280;40363;52.270;10.546;2022-12-07T04:48:29;77303.31;;;-147.06;100.00
54453;BME280;40363;52.270;10.546;2022-12-07T04:50:56;77303.31;;;-147.06;100.00
54453;BME280;40363;52.270;10.546;2022-12-07T04:53:24;77303.31;;;-147.06;100.00
54453;BME280;40363;52.270;10.546;2022-12-07T04:55:50;77305.34;;;-147.06;100.00
54453;BME280;40363;52.270;10.546;2022-12-07T04:58:17;77305.34;;;-147.06;100.00
54453;BME280;40363;52.270;10.546;2022-12-07T05:00:43;77303.31;;;-147.06;100.00
54453;BME280;40363;52.270;10.546;2022-12-07T05:03:10;77307.41;;;-147.06;100.00
54453;BME280;40363;52.270;10.546;2022-12-07T05:05:40;77299.19;;;-147.06;100.00
54453;BME280;40363;52.270;10.546;2022-12-07T05:08:06;77303.31;;;-147.06;100.00
54453;BME280;40363;52.270;10.546;2022-12-07T05:10:34;77303.31;;;-147.06;100.00
54453;BME280;40363;52.270;10.546;2022-12-07T05:13:01;77321.81;;;-147.06;100.00
54453;BME280;40363;52.270;10.546;2022-12-07T05:15:27;77319.75;;;-147.06;100.00
54453;BME280;40363;52.270;10.546;2022-12-07T05:17:54;77325.91;;;-147.06;100.00
54453;BME280;40363;52.270;10.546;2022-12-07T05:20:21;77325.91;;;-147.06;100.00
54453;BME280;40363;52.270;10.546;2022-12-07T05:22:47;77321.81;;;-147.06;100.00
54453;BME280;40363;52.270;10.546;2022-12-07T05:25:14;77327.97;;;-147.06;100.00
54453;BME280;40363;52.270;10.546;2022-12-07T05:27:42;77327.97;;;-147.06;100.00
54453;BME280;40363;52.270;10.546;2022-12-07T05:30:09;77338.25;;;-147.06;100.00
54453;BME280;40363;52.270;10.546;2022-12-07T05:32:36;77336.19;;;-147.06;100.00
54453;BME280;40363;52.270;10.546;2022-12-07T05:35:03;77340.31;;;-147.06;100.00
54453;BME280;40363;52.270;10.546;2022-12-07T05:37:30;77344.41;;;-147.06;100.00
54453;BME280;40363;52.270;10.546;2022-12-07T05:39:56;77344.41;;;-147.06;100.00
54453;BME280;40363;52.270;10.546;2022-12-07T05:42:23;77352.66;;;-147.06;100.00
54453;BME280;40363;52.270;10.546;2022-12-07T05:44:51;77348.53;;;-147.06;100.00
54453;BME280;40363;52.270;10.546;2022-12-07T05:47:17;77344.41;;;-147.06;100.00
54453;BME280;40363;52.270;10.546;2022-12-07T05:49:44;77348.53;;;-147.06;100.00
54453;BME280;40363;52.270;10.546;2022-12-07T05:52:11;77340.31;;;-147.06;100.00
54453;BME280;40363;52.270;10.546;2022-12-07T05:54:37;77340.31;;;-147.06;100.00
54453;BME280;40363;52.270;10.546;2022-12-07T05:57:04;77344.41;;;-147.06;100.00
54453;BME280;40363;52.270;10.546;2022-12-07T05:59:30;77344.41;;;-147.06;100.00
54453;BME280;40363;52.270;10.546;2022-12-07T06:01:58;77325.91;;;-147.06;100.00
54453;BME280;40363;52.270;10.546;2022-12-07T06:04:27;77332.09;;;-147.06;100.00
54453;BME280;40363;52.270;10.546;2022-12-07T06:06:54;77334.13;;;-147.06;100.00
54453;BME280;40363;52.270;10.546;2022-12-07T06:09:22;77342.38;;;-147.06;100.00
54453;BME280;40363;52.270;10.546;2022-12-07T06:11:49;77332.09;;;-147.06;100.00
54453;BME280;40363;52.270;10.546;2022-12-07T06:14:34;77334.13;;;-147.06;100.00
54453;BME280;40363;52.270;10.546;2022-12-07T06:17:02;77323.88;;;-147.06;100.00
54453;BME280;40363;52.270;10.546;2022-12-07T06:19:29;77336.19;;;-147.06;100.00
54453;BME280;40363;52.270;10.546;2022-12-07T06:21:56;77344.41;;;-147.06;100.00
54453;BME280;40363;52.270;10.546;2022-12-07T06:24:23;77354.69;;;-147.06;100.00
54453;BME280;40363;52.270;10.546;2022-12-07T06:26:50;77364.97;;;-147.06;100.00
54453;BME280;40363;52.270;10.546;2022-12-07T06:29:17;77381.44;;;-147.06;100.00
54453;BME280;40363;52.270;10.546;2022-12-07T06:31:44;77369.09;;;-147.06;100.00
54453;BME280;40363;52.270;10.546;2022-12-07T06:34:18;77381.44;;;-147.06;99.32
54453;BME280;40363;52.270;10.546;2022-12-07T06:36:45;77371.16;;;-147.06;99.22
54453;BME280;40363;52.270;10.546;2022-12-07T06:39:16;77385.53;;;-147.06;99.49
54453;BME280;40363;52.270;10.546;2022-12-07T06:41:43;77399.94;;;-147.06;99.65
54453;BME280;40363;52.270;10.546;2022-12-07T06:44:10;77406.09;;;-147.06;99.79
54453;BME280;40363;52.270;10.546;2022-12-07T06:46:37;77410.22;;;-147.06;100.00
54453;BME280;40363;52.270;10.546;2022-12-07T06:49:04;77404.03;;;-147.06;100.00
54453;BME280;40363;52.270;10.546;2022-12-07T06:51:32;77414.31;;;-147.06;100.00
54453;BME280;40363;52.270;10.546;2022-12-07T06:54:00;77410.22;;;-147.06;100.00
54453;BME280;40363;52.270;10.546;2022-12-07T06:56:27;77408.16;;;-147.06;100.00
54453;BME280;40363;52.270;10.546;2022-12-07T06:58:54;77397.88;;;-147.06;100.00
54453;BME280;40363;52.270;10.546;2022-12-07T07:01:20;77389.66;;;-147.06;100.00
54453;BME280;40363;52.270;10.546;2022-12-07T07:03:47;77393.75;;;-147.06;100.00
54453;BME280;40363;52.270;10.546;2022-12-07T07:06:14;77385.53;;;-147.06;100.00
54453;BME280;40363;52.270;10.546;2022-12-07T07:08:42;77379.38;;;-147.06;100.00
54453;BME280;40363;52.270;10.546;2022-12-07T07:11:09;77381.44;;;-147.06;100.00
54453;BME280;40363;52.270;10.546;2022-12-07T07:13:37;77373.19;;;-147.06;100.00
54453;BME280;40363;52.270;10.546;2022-12-07T07:16:05;77375.25;;;-147.06;100.00
54453;BME280;40363;52.270;10.546;2022-12-07T07:18:31;77381.44;;;-147.06;100.00
54453;BME280;40363;52.270;10.546;2022-12-07T07:20:58;77381.44;;;-147.06;100.00
54453;BME280;40363;52.270;10.546;2022-12-07T07:23:25;77379.38;;;-147.06;100.00
54453;BME280;40363;52.270;10.546;2022-12-07T07:25:53;77377.31;;;-147.06;100.00
54453;BME280;40363;52.270;10.546;2022-12-07T07:28:19;77377.31;;;-147.06;100.00
54453;BME280;40363;52.270;10.546;2022-12-07T07:30:46;77373.19;;;-147.06;100.00
54453;BME280;40363;52.270;10.546;2022-12-07T07:33:14;77369.09;;;-147.06;100.00
54453;BME280;40363;52.270;10.546;2022-12-07T07:35:41;77356.75;;;-147.06;100.00
54453;BME280;40363;52.270;10.546;2022-12-07T07:38:08;77367.03;;;-147.06;100.00
54453;BME280;40363;52.270;10.546;2022-12-07T07:40:35;77350.59;;;-147.06;100.00
54453;BME280;40363;52.270;10.546;2022-12-07T07:43:03;77352.66;;;-147.06;100.00
54453;BME280;40363;52.270;10.546;2022-12-07T07:45:30;77362.91;;;-147.06;100.00
54453;BME280;40363;52.270;10.546;2022-12-07T07:47:56;77367.03;;;-147.06;100.00
54453;BME280;40363;52.270;10.546;2022-12-07T07:50:23;77360.88;;;-147.06;100.00
54453;BME280;40363;52.270;10.546;2022-12-07T07:52:50;77375.25;;;-147.06;100.00
54453;BME280;40363;52.270;10.546;2022-12-07T07:55:17;77377.31;;;-147.06;100.00
54453;BME280;40363;52.270;10.546;2022-12-07T07:57:44;77381.44;;;-147.06;100.00
54453;BME280;40363;52.270;10.546;2022-12-07T08:00:14;77383.47;;;-147.06;100.00
54453;BME280;40363;52.270;10.546;2022-12-07T08:02:41;77371.16;;;-147.06;100.00
54453;BME280;40363;52.270;10.546;2022-12-07T08:05:09;77377.31;;;-147.06;100.00
54453;BME280;40363;52.270;10.546;2022-12-07T08:07:36;77371.16;;;-147.06;100.00
54453;BME280;40363;52.270;10.546;2022-12-07T08:10:03;77387.59;;;-147.06;100.00
54453;BME280;40363;52.270;10.546;2022-12-07T08:12:30;77391.72;;;-147.06;100.00
54453;BME280;40363;52.270;10.546;2022-12-07T08:14:57;77387.59;;;-147.06;100.00
54453;BME280;40363;52.270;10.546;2022-12-07T08:17:25;77383.47;;;-147.06;100.00
54453;BME280;40363;52.270;10.546;2022-12-07T08:19:51;77375.25;;;-147.06;100.00
54453;BME280;40363;52.270;10.546;2022-12-07T08:22:18;77391.72;;;-147.06;100.00
54453;BME280;40363;52.270;10.546;2022-12-07T08:24:45;77381.44;;;-147.06;100.00
54453;BME280;40363;52.270;10.546;2022-12-07T08:27:11;77360.88;;;-147.06;100.00
54453;BME280;40363;52.270;10.546;2022-12-07T08:29:38;77360.88;;;-147.06;100.00
54453;BME280;40363;52.270;10.546;2022-12-07T08:32:04;77373.19;;;-147.06;100.00
54453;BME280;40363;52.270;10.546;2022-12-07T08:34:33;77360.88;;;-147.06;100.00
54453;BME280;40363;52.270;10.546;2022-12-07T08:37:00;77354.69;;;-147.06;100.00
54453;BME280;40363;52.270;10.546;2022-12-07T08:39:27;77358.81;;;-147.06;100.00
54453;BME280;40363;52.270;10.546;2022-12-07T08:41:55;77356.75;;;-147.06;100.00
54453;BME280;40363;52.270;10.546;2022-12-07T08:44:22;77352.66;;;-147.06;100.00
54453;BME280;40363;52.270;10.546;2022-12-07T08:46:51;77358.81;;;-147.06;100.00
54453;BME280;40363;52.270;10.546;2022-12-07T08:49:20;77362.91;;;-147.06;100.00
54453;BME280;40363;52.270;10.546;2022-12-07T08:51:50;77354.69;;;-147.06;100.00
54453;BME280;40363;52.270;10.546;2022-12-07T08:54:18;77352.66;;;-147.06;100.00
54453;BME280;40363;52.270;10.546;2022-12-07T08:56:47;77354.69;;;-147.06;100.00
54453;BME280;40363;52.270;10.546;2022-12-07T08:59:15;77356.75;;;-147.06;100.00
54453;BME280;40363;52.270;10.546;2022-12-07T09:01:43;77360.88;;;-147.06;100.00
54453;BME280;40363;52.270;10.546;2022-12-07T09:04:10;77356.75;;;-147.06;99.62
54453;BME280;40363;52.270;10.546;2022-12-07T09:06:36;77346.47;;;-147.06;99.01
54453;BME280;40363;52.270;10.546;2022-12-07T09:09:06;77350.59;;;-147.06;99.16
54453;BME280;40363;52.270;10.546;2022-12-07T09:11:32;77350.59;;;-147.06;99.17
54453;BME280;40363;52.270;10.546;2022-12-07T09:13:59;77352.66;;;-147.06;99.10
54453;BME280;40363;52.270;10.546;2022-12-07T09:16:26;77340.31;;;-147.06;99.07
54453;BME280;40363;52.270;10.546;2022-12-07T09:18:53;77350.59;;;-147.06;99.31
54453;BME280;40363;52.270;10.546;2022-12-07T09:21:20;77348.53;;;-147.06;99.44
54453;BME280;40363;52.270;10.546;2022-12-07T09:23:47;77348.53;;;-147.06;99.45
54453;BME280;40363;52.270;10.546;2022-12-07T09:26:15;77334.13;;;-147.06;99.60
54453;BME280;40363;52.270;10.546;2022-12-07T09:28:41;77332.09;;;-147.06;99.67
54453;BME280;40363;52.270;10.546;2022-12-07T09:31:08;77344.41;;;-147.06;99.82
54453;BME280;40363;52.270;10.546;2022-12-07T09:33:35;77340.31;;;-147.06;99.70
54453;BME280;40363;52.270;10.546;2022-12-07T09:36:03;77336.19;;;-147.06;99.28
54453;BME280;40363;52.270;10.546;2022-12-07T09:38:30;77323.88;;;-147.06;98.94
54453;BME280;40363;52.270;10.546;2022-12-07T09:41:04;77311.53;;;-147.06;98.51
54453;BME280;40363;52.270;10.546;2022-12-07T09:43:34;77317.69;;;-147.06;98.80
54453;BME280;40363;52.270;10.546;2022-12-07T09:46:01;77315.63;;;-147.06;98.97
54453;BME280;40363;52.270;10.546;2022-12-07T09:48:31;77313.59;;;-147.06;98.98
54453;BME280;40363;52.270;10.546;2022-12-07T09:51:00;77311.53;;;-147.06;98.24
54453;BME280;40363;52.270;10.546;2022-12-07T09:53:29;77309.47;;;-147.06;98.67
54453;BME280;40363;52.270;10.546;2022-12-07T09:55:56;77307.41;;;-147.06;98.72
54453;BME280;40363;52.270;10.546;2022-12-07T09:58:25;77315.63;;;-147.06;98.10
54453;BME280;40363;52.270;10.546;2022-12-07T10:00:56;77301.25;;;-147.06;98.35
54453;BME280;40363;52.270;10.546;2022-12-07T10:03:23;77313.59;;;-147.06;98.14
54453;BME280;40363;52.270;10.546;2022-12-07T10:05:51;77319.75;;;-147.06;98.03
54453;BME280;40363;52.270;10.546;2022-12-07T10:08:19;77332.09;;;-147.06;97.74
54453;BME280;40363;52.270;10.546;2022-12-07T10:10:49;77317.69;;;-147.06;97.58
54453;BME280;40363;52.270;10.546;2022-12-07T10:13:20;77317.69;;;-147.06;97.69
54453;BME280;40363;52.270;10.546;2022-12-07T10:15:50;77315.63;;;-147.06;97.02
54453;BME280;40363;52.270;10.546;2022-12-07T10:18:29;77313.59;;;-147.06;96.98
54453;BME280;40363;52.270;10.546;2022-12-07T10:21:11;77299.19;;;-147.06;96.77
54453;BME280;40363;52.270;10.546;2022-12-07T10:23:39;77299.19;;;-147.06;97.15
54453;BME280;40363;52.270;10.546;2022-12-07T10:26:21;77288.91;;;-147.06;96.28
54453;BME280;40363;52.270;10.546;2022-12-07T10:28:52;77301.25;;;-147.06;96.42
54453;BME280;40363;52.270;10.546;2022-12-07T10:31:20;77297.13;;;-147.06;96.42
54453;BME280;40363;52.270;10.546;2022-12-07T10:33:54;77293.03;;;-147.06;96.08
54453;BME280;40363;52.270;10.546;2022-12-07T10:36:24;77286.84;;;-147.06;96.02
54453;BME280;40363;52.270;10.546;2022-12-07T10:38:52;77286.84;;;-147.06;96.08
54453;BME280;40363;52.270;10.546;2022-12-07T10:41:20;77268.34;;;-147.06;95.82
54453;BME280;40363;52.270;10.546;2022-12-07T10:43:48;77264.25;;;-147.06;94.92
54453;BME280;40363;52.270;10.546;2022-12-07T10:49:52;77266.31;;;-147.06;93.89
54453;BME280;40363;52.270;10.546;2022-12-07T10:52:38;77266.31;;;-147.06;93.73
54453;BME280;40363;52.270;10.546;2022-12-07T10:55:15;77276.56;;;-147.06;92.91
54453;BME280;40363;52.270;10.546;2022-12-07T10:57:51;77266.31;;;-147.06;92.69
54453;BME280;40363;52.270;10.546;2022-12-07T11:00:22;77268.34;;;-147.06;93.00
54453;BME280;40363;52.270;10.546;2022-12-07T11:03:23;77282.75;;;-147.06;92.76
54453;BME280;40363;52.270;10.546;2022-12-07T11:05:57;77262.19;;;-147.06;93.16
54453;BME280;40363;52.270;10.546;2022-12-07T11:08:42;77251.91;;;-147.06;93.00
54453;BME280;40363;52.270;10.546;2022-12-07T11:11:14;77237.53;;;-147.06;92.29
54453;BME280;40363;52.270;10.546;2022-12-07T11:13:48;77219.03;;;-147.06;91.89
54453;BME280;40363;52.270;10.546;2022-12-07T11:16:23;77227.25;;;-147.06;91.11
54453;BME280;40363;52.270;10.546;2022-12-07T11:19:03;77206.69;;;-147.06;91.66
54453;BME280;40363;52.270;10.546;2022-12-07T11:21:42;77210.78;;;-147.06;91.30
54453;BME280;40363;52.270;10.546;2022-12-07T11:24:16;77196.41;;;-147.06;91.10
54453;BME280;40363;52.270;10.546;2022-12-07T11:27:14;77200.50;;;-147.06;90.27
54453;BME280;40363;52.270;10.546;2022-12-07T11:30:13;77196.41;;;-147.06;90.44
54453;BME280;40363;52.270;10.546;2022-12-07T11:32:49;77204.63;;;-147.06;90.48
54453;BME280;40363;52.270;10.546;2022-12-07T11:35:24;77229.28;;;-147.06;91.41
54453;BME280;40363;52.270;10.546;2022-12-07T11:38:00;77221.06;;;-147.06;91.29
54453;BME280;40363;52.270;10.546;2022-12-07T11:40:30;77227.25;;;-147.06;90.73
54453;BME280;40363;52.270;10.546;2022-12-07T11:43:04;77200.50;;;-147.06;90.79
54453;BME280;40363;52.270;10.546;2022-12-07T11:45:35;77182.00;;;-147.06;90.13
54453;BME280;40363;52.270;10.546;2022-12-07T11:48:10;77165.56;;;-147.06;89.86
54453;BME280;40363;52.270;10.546;2022-12-07T11:50:41;77165.56;;;-147.06;89.16
54453;BME280;40363;52.270;10.546;2022-12-07T11:53:17;77157.34;;;-147.06;89.48
54453;BME280;40363;52.270;10.546;2022-12-07T11:55:48;77157.34;;;-147.06;89.70
54453;BME280;40363;52.270;10.546;2022-12-07T11:58:34;77175.84;;;-147.06;89.23
54453;BME280;40363;52.270;10.546;2022-12-07T12:01:12;77179.97;;;-147.06;89.43
54453;BME280;40363;52.270;10.546;2022-12-07T12:03:44;77163.50;;;-147.06;89.51
54453;BME280;40363;52.270;10.546;2022-12-07T12:06:11;77159.41;;;-147.06;89.21
54453;BME280;40363;52.270;10.546;2022-12-07T12:08:43;77155.28;;;-147.06;89.39
54453;BME280;40363;52.270;10.546;2022-12-07T12:11:23;77163.50;;;-147.06;89.49
54453;BME280;40363;52.270;10.546;2022-12-07T12:17:22;77184.06;;;-147.06;90.79
54453;BME280;40363;52.270;10.546;2022-12-07T12:20:01;77188.19;;;-147.06;90.82
54453;BME280;40363;52.270;10.546;2022-12-07T12:22:35;77200.50;;;-147.06;90.98
54453;BME280;40363;52.270;10.546;2022-12-07T12:25:07;77200.50;;;-147.06;90.68
54453;BME280;40363;52.270;10.546;2022-12-07T12:27:38;77202.56;;;-147.06;90.49
54453;BME280;40363;52.270;10.546;2022-12-07T12:30:23;77206.69;;;-147.06;90.11
54453;BME280;40363;52.270;10.546;2022-12-07T12:32:51;77204.63;;;-147.06;90.85
54453;BME280;40363;52.270;10.546;2022-12-07T12:35:28;77210.78;;;-147.06;90.40
54453;BME280;40363;52.270;10.546;2022-12-07T12:38:26;77210.78;;;-147.06;90.43
54453;BME280;40363;52.270;10.546;2022-12-07T12:40:55;77202.56;;;-147.06;89.91
54453;BME280;40363;52.270;10.546;2022-12-07T12:43:45;77192.28;;;-147.06;89.54